createdAt,value
2018-09-19T00:01:42.356Z,15.20
2018-09-19T00:04:10.485Z,15.20
2018-09-19T00:06:38.610Z,15.10
2018-09-19T00:09:08.934Z,15.10
2018-09-19T00:11:37.083Z,15.00
2018-09-19T00:14:05.213Z,15.00
2018-09-19T00:16:33.557Z,15.00
2018-09-19T00:19:01.676Z,15.00
2018-09-19T00:21:29.895Z,15.00
2018-09-19T00:23:58.131Z,15.00
2018-09-19T00:26:26.327Z,15.00
2018-09-19T00:28:54.556Z,15.00
2018-09-19T00:31:22.747Z,15.00
2018-09-19T00:33:50.907Z,15.00
2018-09-19T00:36:19.054Z,15.00
2018-09-19T00:38:47.189Z,15.00
2018-09-19T00:41:15.321Z,15.00
2018-09-19T00:43:43.433Z,15.00
2018-09-19T00:46:11.582Z,15.00
2018-09-19T00:48:39.733Z,15.00
2018-09-19T00:51:08.113Z,14.90
2018-09-19T00:53:36.237Z,14.90
2018-09-19T00:56:04.412Z,14.80
2018-09-19T00:58:32.537Z,14.70
2018-09-19T01:01:00.662Z,14.70
2018-09-19T01:05:56.734Z,14.70
2018-09-19T01:08:24.884Z,14.70
2018-09-19T01:10:53.030Z,14.80
2018-09-19T01:13:21.170Z,14.80
2018-09-19T01:15:49.602Z,14.80
2018-09-19T01:18:17.820Z,14.90
2018-09-19T01:20:45.926Z,14.80
2018-09-19T01:23:14.122Z,14.90
2018-09-19T01:25:42.258Z,14.80
2018-09-19T01:28:10.437Z,14.80
2018-09-19T01:30:38.576Z,14.80
2018-09-19T01:33:06.738Z,14.80
2018-09-19T01:38:02.810Z,14.70
2018-09-19T01:40:30.952Z,14.70
2018-09-19T01:42:59.109Z,14.70
2018-09-19T01:45:27.262Z,14.70
2018-09-19T01:47:55.435Z,14.70
2018-09-19T01:50:23.604Z,14.70
2018-09-19T01:52:51.762Z,14.60
2018-09-19T01:55:19.918Z,14.60
2018-09-19T01:57:48.154Z,14.60
2018-09-19T02:00:16.287Z,14.70
2018-09-19T02:02:44.445Z,14.70
2018-09-19T02:05:12.635Z,14.70
2018-09-19T02:07:40.793Z,14.70
2018-09-19T02:10:08.913Z,14.70
2018-09-19T02:12:37.058Z,14.70
2018-09-19T02:15:05.187Z,14.70
2018-09-19T02:17:33.348Z,14.70
2018-09-19T02:20:01.474Z,14.60
2018-09-19T02:22:29.601Z,14.70
2018-09-19T02:24:57.730Z,14.60
2018-09-19T02:27:25.883Z,14.60
2018-09-19T02:29:54.021Z,14.60
2018-09-19T02:32:22.174Z,14.60
2018-09-19T02:34:50.293Z,14.50
2018-09-19T02:37:18.457Z,14.40
2018-09-19T02:39:46.577Z,14.40
2018-09-19T02:42:14.727Z,14.40
2018-09-19T02:44:42.879Z,14.20
2018-09-19T02:47:11.056Z,14.20
2018-09-19T02:49:39.130Z,14.20
2018-09-19T02:52:07.272Z,14.20
2018-09-19T02:54:35.423Z,14.20
2018-09-19T02:57:03.543Z,14.10
2018-09-19T02:59:31.696Z,14.10
2018-09-19T03:01:59.839Z,14.00
2018-09-19T03:04:27.994Z,14.00
2018-09-19T03:06:56.138Z,13.90
2018-09-19T03:09:24.274Z,13.90
2018-09-19T03:11:52.403Z,13.90
2018-09-19T03:14:20.548Z,13.90
2018-09-19T03:16:48.677Z,13.90
2018-09-19T03:19:16.880Z,13.90
2018-09-19T03:21:45.021Z,13.80
2018-09-19T03:24:13.158Z,13.90
2018-09-19T03:26:41.321Z,13.80
2018-09-19T03:29:09.469Z,13.90
2018-09-19T03:31:37.609Z,13.90
2018-09-19T03:34:05.860Z,13.80
2018-09-19T03:36:34.012Z,13.80
2018-09-19T03:39:02.165Z,13.60
2018-09-19T03:41:30.306Z,13.60
2018-09-19T03:43:58.453Z,13.70
2018-09-19T03:46:26.579Z,13.70
2018-09-19T03:48:54.713Z,13.70
2018-09-19T03:51:22.859Z,13.70
2018-09-19T03:53:51.003Z,13.70
2018-09-19T03:58:47.066Z,13.60
2018-09-19T04:01:15.314Z,13.60
2018-09-19T04:03:43.473Z,13.60
2018-09-19T04:06:11.593Z,13.60
2018-09-19T04:08:39.791Z,13.50
2018-09-19T04:11:07.938Z,13.50
2018-09-19T04:13:36.183Z,13.50
2018-09-19T04:16:04.410Z,13.60
2018-09-19T04:23:28.466Z,13.50
2018-09-19T04:25:56.693Z,13.50
2018-09-19T04:28:24.830Z,13.50
2018-09-19T04:30:52.979Z,13.50
2018-09-19T04:33:21.115Z,13.50
2018-09-19T04:35:49.254Z,13.40
2018-09-19T04:38:17.425Z,13.40
2018-09-19T04:40:45.606Z,13.40
2018-09-19T04:43:13.734Z,13.40
2018-09-19T04:48:09.924Z,13.40
2018-09-19T04:50:38.107Z,13.40
2018-09-19T04:53:06.438Z,13.50
2018-09-19T04:58:02.583Z,13.40
2018-09-19T05:02:58.672Z,13.30
2018-09-19T05:07:54.752Z,13.40
2018-09-19T05:10:22.912Z,13.50
2018-09-19T05:12:51.033Z,13.40
2018-09-19T05:17:47.101Z,13.40
2018-09-19T05:20:15.273Z,13.40
2018-09-19T05:22:43.411Z,13.40
2018-09-19T05:25:11.590Z,13.40
2018-09-19T05:27:39.729Z,13.40
2018-09-19T05:30:07.895Z,13.50
2018-09-19T05:32:36.036Z,13.50
2018-09-19T05:37:32.111Z,13.50
2018-09-19T05:40:00.302Z,13.60
2018-09-19T05:42:28.464Z,13.60
2018-09-19T05:44:56.643Z,13.70
2018-09-19T05:47:24.770Z,13.70
2018-09-19T05:49:53.236Z,13.70
2018-09-19T05:52:25.962Z,13.70
2018-09-19T05:54:55.483Z,13.80
2018-09-19T05:57:23.637Z,13.80
2018-09-19T05:59:51.795Z,13.90
2018-09-19T06:02:19.949Z,13.90
2018-09-19T06:04:48.306Z,14.00
2018-09-19T06:07:16.477Z,14.10
2018-09-19T06:09:44.638Z,14.10
2018-09-19T06:14:40.763Z,14.30
2018-09-19T06:17:08.919Z,14.30
2018-09-19T06:19:37.090Z,14.40
2018-09-19T06:22:05.262Z,14.50
2018-09-19T06:24:33.446Z,14.50
2018-09-19T06:27:01.638Z,14.60
2018-09-19T06:29:29.761Z,14.60
2018-09-19T06:31:57.943Z,14.80
2018-09-19T06:34:26.197Z,14.80
2018-09-19T06:36:54.356Z,15.00
2018-09-19T06:39:22.690Z,15.10
2018-09-19T06:41:50.843Z,15.20
2018-09-19T06:44:19.016Z,15.20
2018-09-19T06:46:47.192Z,15.30
2018-09-19T06:49:15.369Z,15.40
2018-09-19T06:51:43.505Z,15.50
2018-09-19T06:54:11.688Z,15.60
2018-09-19T06:56:39.838Z,15.70
2018-09-19T06:59:08.025Z,15.70
2018-09-19T07:01:36.211Z,15.90
2018-09-19T07:04:04.361Z,15.90
2018-09-19T07:06:32.594Z,16.00
2018-09-19T07:09:00.789Z,16.00
2018-09-19T07:11:28.942Z,16.00
2018-09-19T07:13:57.125Z,16.10
2018-09-19T07:16:25.293Z,16.00
2018-09-19T07:18:53.548Z,16.10
2018-09-19T07:21:21.635Z,16.10
2018-09-19T07:23:49.806Z,16.10
2018-09-19T07:26:17.922Z,16.10
2018-09-19T07:28:46.461Z,16.20
2018-09-19T07:31:14.672Z,16.20
2018-09-19T07:33:42.758Z,16.20
2018-09-19T07:36:10.949Z,16.40
2018-09-19T07:38:39.143Z,16.50
2018-09-19T07:41:07.302Z,16.40
2018-09-19T07:43:35.474Z,16.70
2018-09-19T07:46:03.694Z,16.80
2018-09-19T07:48:31.841Z,16.80
2018-09-19T07:51:00.169Z,17.00
2018-09-19T07:53:34.497Z,17.00
2018-09-19T07:56:03.121Z,17.10
2018-09-19T07:58:31.869Z,17.20
2018-09-19T08:01:00.274Z,17.30
2018-09-19T08:03:28.466Z,17.30
2018-09-19T08:05:56.630Z,17.50
2018-09-19T08:08:24.801Z,17.50
2018-09-19T08:10:53.466Z,17.60
2018-09-19T08:13:21.610Z,17.70
2018-09-19T08:15:49.822Z,17.90
2018-09-19T08:18:17.973Z,17.90
2018-09-19T08:20:46.126Z,18.00
2018-09-19T08:23:14.282Z,18.10
2018-09-19T08:25:42.445Z,18.20
2018-09-19T08:28:10.593Z,18.40
2018-09-19T08:30:38.793Z,18.50
2018-09-19T08:33:06.955Z,18.60
2018-09-19T08:35:35.157Z,18.70
2018-09-19T08:38:03.310Z,18.80
2018-09-19T08:40:31.521Z,18.90
2018-09-19T08:42:59.681Z,19.00
2018-09-19T08:45:27.931Z,19.10
2018-09-19T08:47:56.059Z,19.20
2018-09-19T08:50:24.256Z,19.30
2018-09-19T08:52:52.403Z,19.40
2018-09-19T08:55:20.540Z,19.50
2018-09-19T08:57:48.687Z,19.60
2018-09-19T09:00:16.871Z,19.80
2018-09-19T09:02:45.033Z,19.90
2018-09-19T09:05:13.225Z,20.00
2018-09-19T09:07:41.338Z,20.10
2018-09-19T09:10:09.501Z,20.20
2018-09-19T09:16:01.231Z,20.60
2018-09-19T09:18:29.401Z,20.60
2018-09-19T09:20:57.640Z,20.80
2018-09-19T09:23:25.783Z,20.90
2018-09-19T09:30:50.095Z,21.30
2018-09-19T09:33:18.269Z,21.40
2018-09-19T09:45:38.183Z,22.00
2018-09-19T09:53:02.170Z,22.30
2018-09-19T09:57:58.348Z,22.50
2018-09-19T10:00:31.942Z,22.60
2018-09-19T10:03:00.138Z,22.70
2018-09-19T10:05:28.306Z,22.80
2018-09-19T10:10:24.515Z,22.90
2018-09-19T10:17:48.771Z,23.20
2018-09-19T10:20:16.921Z,23.30
2018-09-19T10:22:45.103Z,23.30
2018-09-19T10:25:13.489Z,23.30
2018-09-19T10:30:09.579Z,23.30
2018-09-19T10:32:37.782Z,23.40
2018-09-19T10:35:05.959Z,23.40
2018-09-19T10:40:02.026Z,23.50
2018-09-19T10:47:26.108Z,23.60
2018-09-19T10:49:54.327Z,23.70
2018-09-19T10:52:22.492Z,23.80
2018-09-19T10:54:50.654Z,23.90
2018-09-19T10:57:18.851Z,23.80
2018-09-19T10:59:47.030Z,23.90
2018-09-19T11:02:15.214Z,23.90
2018-09-19T11:04:43.438Z,23.90
2018-09-19T11:07:11.609Z,24.10
2018-09-19T11:09:39.782Z,24.30
2018-09-19T11:12:08.010Z,24.30
2018-09-19T11:17:04.127Z,24.50
2018-09-19T11:22:00.194Z,24.60
2018-09-19T11:24:28.399Z,24.70
2018-09-19T11:26:56.609Z,24.80
2018-09-19T11:29:24.802Z,24.80
2018-09-19T11:34:20.915Z,24.90
2018-09-19T11:39:17.079Z,25.10
2018-09-19T11:41:45.263Z,25.20
2018-09-19T11:44:13.440Z,25.20
2018-09-19T11:46:41.600Z,25.20
2018-09-19T11:49:09.791Z,25.20
2018-09-19T11:51:37.962Z,25.30
2018-09-19T11:56:34.246Z,25.40
2018-09-19T11:59:02.410Z,25.50
2018-09-19T12:06:26.406Z,25.60
2018-09-19T12:08:54.568Z,25.70
2018-09-19T12:11:22.742Z,25.80
2018-09-19T12:13:50.930Z,25.90
2018-09-19T12:16:19.066Z,26.00
2018-09-19T12:18:47.239Z,26.00
2018-09-19T12:21:15.399Z,26.10
2018-09-19T12:23:43.655Z,26.20
2018-09-19T12:26:11.800Z,26.30
2018-09-19T12:28:39.943Z,26.40
2018-09-19T12:31:08.184Z,26.50
2018-09-19T12:33:36.343Z,26.60
2018-09-19T12:36:05.895Z,26.60
2018-09-19T12:38:34.136Z,26.70
2018-09-19T12:41:02.296Z,26.70
2018-09-19T12:43:30.459Z,26.80
2018-09-19T12:45:58.614Z,26.90
2018-09-19T12:48:26.767Z,26.90
2018-09-19T12:50:54.933Z,26.80
2018-09-19T12:53:24.807Z,26.80
2018-09-19T12:55:53.737Z,26.80
2018-09-19T12:58:21.931Z,26.80
2018-09-19T13:03:18.403Z,26.90
2018-09-19T13:05:46.600Z,27.00
2018-09-19T13:08:14.771Z,27.00
2018-09-19T13:13:10.906Z,27.00
2018-09-19T13:15:39.071Z,27.00
2018-09-19T13:23:03.097Z,27.00
2018-09-19T13:25:31.259Z,26.80
2018-09-19T13:30:27.342Z,26.70
2018-09-19T13:32:55.502Z,26.60
2018-09-19T13:35:23.735Z,26.60
2018-09-19T13:37:52.002Z,26.40
2018-09-19T13:40:20.190Z,26.30
2018-09-19T13:42:48.358Z,26.30
2018-09-19T13:45:16.543Z,26.30
2018-09-19T13:47:44.764Z,26.30
2018-09-19T13:50:25.209Z,26.30
2018-09-19T13:52:53.367Z,26.30
2018-09-19T13:55:21.574Z,26.40
2018-09-19T13:57:49.751Z,26.40
2018-09-19T14:00:17.891Z,26.50
2018-09-19T14:02:46.058Z,26.50
2018-09-19T14:05:14.248Z,26.50
2018-09-19T14:07:42.406Z,26.50
2018-09-19T14:10:10.577Z,26.50
2018-09-19T14:12:38.751Z,26.40
2018-09-19T14:15:06.931Z,26.30
2018-09-19T14:17:35.197Z,26.20
2018-09-19T14:20:03.371Z,26.20
2018-09-19T14:22:31.520Z,26.10
2018-09-19T14:24:59.682Z,26.10
2018-09-19T14:27:27.843Z,26.10
2018-09-19T14:29:56.034Z,26.20
2018-09-19T14:32:24.210Z,26.20
2018-09-19T14:34:52.366Z,26.30
2018-09-19T14:37:20.538Z,26.30
2018-09-19T14:39:48.964Z,26.30
2018-09-19T14:42:17.130Z,26.20
2018-09-19T14:44:45.281Z,26.30
2018-09-19T14:47:13.429Z,26.20
2018-09-19T14:49:41.586Z,26.20
2018-09-19T14:52:09.764Z,26.00
2018-09-19T14:54:37.963Z,25.90
2018-09-19T15:04:30.041Z,26.00
2018-09-19T15:06:58.201Z,26.00
2018-09-19T15:14:22.279Z,26.10
2018-09-19T15:16:50.464Z,26.10
2018-09-19T15:19:18.685Z,26.10
2018-09-19T15:36:41.064Z,25.70
2018-09-19T15:44:05.696Z,25.70
2018-09-19T15:51:29.894Z,25.60
2018-09-19T15:53:58.058Z,25.60
2018-09-19T15:56:26.213Z,25.60
2018-09-19T15:58:54.448Z,25.50
2018-09-19T16:11:14.570Z,25.30
2018-09-19T16:13:42.783Z,25.30
2018-09-19T16:21:06.832Z,25.20
2018-09-19T16:26:02.894Z,25.10
2018-09-19T16:28:31.094Z,25.00
2018-09-19T16:30:59.265Z,24.90
2018-09-19T16:33:27.486Z,24.90
2018-09-19T16:38:23.607Z,24.80
2018-09-19T16:40:51.806Z,24.70
2018-09-19T16:43:20.007Z,24.60
2018-09-19T16:45:48.285Z,24.60
2018-09-19T16:48:16.386Z,24.50
2018-09-19T16:53:12.507Z,24.40
2018-09-19T17:03:04.494Z,24.00
2018-09-19T17:05:32.775Z,23.90
2018-09-19T17:08:00.976Z,23.90
2018-09-19T17:10:29.177Z,23.80
2018-09-19T17:12:57.348Z,23.70
2018-09-19T17:22:49.359Z,23.40
2018-09-19T17:27:45.444Z,23.30
2018-09-19T17:30:13.601Z,23.20
2018-09-19T17:32:41.775Z,23.10
2018-09-19T17:35:09.995Z,23.00
2018-09-19T17:47:30.194Z,22.10
2018-09-19T17:49:58.528Z,22.00
2018-09-19T17:52:26.545Z,21.90
2018-09-19T17:54:54.710Z,21.80
2018-09-19T18:02:18.862Z,21.70
2018-09-19T18:04:47.026Z,21.70
2018-09-19T18:07:15.195Z,21.60
2018-09-19T18:09:43.360Z,21.50
2018-09-19T18:12:11.526Z,21.30
2018-09-19T18:14:39.680Z,21.20
2018-09-19T18:17:07.835Z,21.00
2018-09-19T18:19:36.021Z,20.80
2018-09-19T18:22:04.201Z,20.60
2018-09-19T18:24:32.380Z,20.50
2018-09-19T18:34:24.451Z,19.90
2018-09-19T18:46:44.666Z,19.50
2018-09-19T18:49:13.044Z,19.50
2018-09-19T18:56:37.375Z,19.50
2018-09-19T19:01:33.571Z,19.30
2018-09-19T19:04:01.707Z,19.20
2018-09-19T19:06:29.853Z,19.20
2018-09-19T19:08:58.007Z,19.10
2018-09-19T19:11:26.211Z,19.10
2018-09-19T19:13:54.414Z,19.10
2018-09-19T19:16:22.635Z,19.00
2018-09-19T19:18:50.903Z,18.90
2018-09-19T19:21:18.999Z,18.90
2018-09-19T19:36:07.082Z,18.40
2018-09-19T19:38:35.256Z,18.30
2018-09-19T19:41:03.430Z,18.40
2018-09-19T19:43:31.601Z,18.40
2018-09-19T19:45:59.752Z,18.40
2018-09-19T20:00:47.538Z,18.30
2018-09-19T20:05:43.706Z,18.30
2018-09-19T20:08:11.858Z,18.30
2018-09-19T20:13:08.410Z,18.20
2018-09-19T20:15:36.608Z,18.10
2018-09-19T20:18:04.861Z,17.90
2018-09-19T20:20:33.006Z,17.90
2018-09-19T20:23:01.165Z,17.90
2018-09-19T20:25:29.419Z,17.90
2018-09-19T20:27:57.603Z,17.80
2018-09-19T20:32:53.721Z,17.70
2018-09-19T20:35:22.055Z,17.70
2018-09-19T20:37:50.225Z,17.80
2018-09-19T20:40:18.400Z,17.80
2018-09-19T20:42:46.568Z,17.80
2018-09-19T20:47:42.668Z,17.70
2018-09-19T20:50:10.851Z,17.60
2018-09-19T20:55:06.934Z,17.50
2018-09-19T20:57:35.090Z,17.50
2018-09-19T21:00:03.331Z,17.40
2018-09-19T21:05:00.251Z,17.20
2018-09-19T21:07:28.414Z,17.20
2018-09-19T21:09:56.564Z,17.20
2018-09-19T21:12:24.717Z,17.30
2018-09-19T21:17:20.786Z,17.40
2018-09-19T21:22:17.012Z,17.50
2018-09-19T21:24:45.065Z,17.50
2018-09-19T21:27:13.218Z,17.50
2018-09-19T21:32:09.336Z,17.50
2018-09-19T21:34:37.841Z,17.60
2018-09-19T21:37:05.974Z,17.50
2018-09-19T21:39:34.161Z,17.60
2018-09-19T21:42:02.342Z,17.50
2018-09-19T21:44:30.507Z,17.60
2018-09-19T21:49:26.623Z,17.50
2018-09-19T21:51:54.879Z,17.50
2018-09-19T21:54:23.427Z,17.40
2018-09-19T21:59:19.725Z,17.20
2018-09-19T22:01:52.131Z,17.10
2018-09-19T22:06:48.252Z,17.10
2018-09-19T22:11:44.351Z,17.10
2018-09-19T22:14:12.549Z,17.20
2018-09-19T22:16:40.698Z,17.20
2018-09-19T22:21:36.823Z,17.20
2018-09-19T22:24:05.014Z,17.10
2018-09-19T22:31:29.164Z,17.10
2018-09-19T22:36:25.290Z,17.00
2018-09-19T22:38:53.476Z,16.80
2018-09-19T22:41:21.740Z,16.70
2018-09-19T22:43:50.303Z,16.60
2018-09-19T22:56:11.010Z,16.80
2018-09-19T22:58:39.209Z,16.80
2018-09-19T23:03:35.326Z,16.90
2018-09-19T23:06:03.522Z,16.90
2018-09-19T23:08:31.707Z,16.90
2018-09-19T23:10:59.890Z,17.00
2018-09-19T23:13:28.078Z,17.00
2018-09-19T23:15:56.310Z,17.00
2018-09-19T23:18:24.499Z,16.90
2018-09-19T23:23:20.628Z,16.50
2018-09-19T23:25:48.936Z,16.50
2018-09-19T23:28:17.111Z,16.40
2018-09-19T23:33:13.223Z,16.20
2018-09-19T23:38:09.367Z,16.10
2018-09-19T23:40:37.543Z,16.10
2018-09-19T23:43:05.722Z,16.10
2018-09-19T23:45:33.906Z,16.10
2018-09-19T23:48:02.091Z,16.10
2018-09-19T23:50:30.300Z,16.00
2018-09-19T23:52:58.516Z,15.90
2018-09-19T23:55:26.746Z,15.90
